Weather History for Cody, WY

Change the Weather History Date:

Tuesday, November 19, 2013

  Actual Average Record
Temperature  
Mean Temperature 45 °F -  
Max Temperature 55 °F 40 °F 68 °F (1949)
Min Temperature 35 °F 22 °F -7 °F (1921)
Degree Days  
Heating Degree Days 20    
Moisture  
Dew Point 24 °F    
Average Humidity 39    
Maximum Humidity 46    
Minimum Humidity 31    
Precipitation  
Precipitation 0.00 in - - ()
Sea Level Pressure  
Sea Level Pressure 29.70 in    
Wind  
Wind Speed 10 mph (WSW)    
Max Wind Speed 23 mph    
Max Gust Speed 34 mph    
Visibility 10 miles    
Events      
Averages and records for this station are not official NWS values.
T = Trace of Precipitation, MM = Missing Value Source: NWS Daily Summary

Daily Weather History Graph

Daily Weather History Graph

Search for Another Location

Airport:

Trip Planner

Search our weather history database for the weather conditions in past years. The results will help you decide how hot, cold, wet, or windy it might be!

Date:

Astronomy

Nov. 19, 2013 Rise Set
Actual Time 7:18 AM MST 4:44 PM MST
Civil Twilight 6:46 AM MST 5:16 PM MST
Nautical Twilight 6:10 AM MST 5:51 PM MST
Astronomical Twilight 5:36 AM MST 6:26 PM MST
Moon 6:37 PM MST (11/19) 9:00 AM MST (11/19)
Length of Visible Light 10h 30m
Length of Day
9h 26m
Waning Gibbous, 96% of the Moon is Illuminated
Nov 19
Waning Gibbous
Nov 25
Last Quarter
Dec 2
New
Dec 9
First Quarter
Dec 17
Full

Hourly Weather History & Observations

Time (MST) Temp. Windchill Dew Point Humidity Pressure Visibility Wind Dir Wind Speed Gust Speed Precip Events Conditions
12:15 AM 39.2 °F 33.6 °F 17.6 °F 42% 29.79 in 10.0 mi WSW 8.1 mph - N/A   Clear
12:35 AM 39.2 °F 33.6 °F 17.6 °F 42% 29.78 in 10.0 mi SW 8.1 mph - N/A   Clear
12:55 AM 39.2 °F 33.6 °F 17.6 °F 42% 29.77 in 10.0 mi SW 8.1 mph - N/A   Clear
1:15 AM 39.2 °F 34.2 °F 17.6 °F 42% 29.77 in 10.0 mi SW 6.9 mph - N/A   Clear
1:35 AM 35.6 °F 29.9 °F 15.8 °F 44% 29.77 in 10.0 mi SSW 6.9 mph - N/A   Clear
1:55 AM 39.2 °F 35.0 °F 17.6 °F 42% 29.76 in 10.0 mi South 5.8 mph - N/A   Clear
2:15 AM 37.4 °F 32.8 °F 15.8 °F 41% 29.76 in 10.0 mi WSW 5.8 mph - N/A   Clear
2:35 AM 39.2 °F 34.2 °F 15.8 °F 39% 29.76 in 10.0 mi SW 6.9 mph - N/A   Clear
2:55 AM 46.4 °F 43.5 °F 17.6 °F 32% 29.74 in 10.0 mi West 5.8 mph - N/A   Clear
3:15 AM 46.4 °F 43.5 °F 17.6 °F 32% 29.73 in 10.0 mi West 5.8 mph - N/A   Clear
3:35 AM 41.0 °F 38.0 °F 15.8 °F 36% 29.73 in 10.0 mi SW 4.6 mph - N/A   Clear
3:55 AM 42.8 °F - 17.6 °F 36% 29.72 in 10.0 mi Calm Calm - N/A   Clear
4:15 AM 44.6 °F 43.1 °F 17.6 °F 34% 29.72 in 10.0 mi South 3.5 mph - N/A   Partly Cloudy
4:35 AM 44.6 °F 38.1 °F 19.4 °F 37% 29.71 in 10.0 mi South 13.8 mph 17.3 mph N/A   Mostly Cloudy
5:15 AM 48.2 °F - 21.2 °F 34% 29.71 in 10.0 mi SSE 8.1 mph - N/A   Mostly Cloudy
5:35 AM 48.2 °F - 21.2 °F 34% 29.71 in 10.0 mi South 9.2 mph - N/A   Overcast
5:55 AM 48.2 °F - 21.2 °F 34% 29.71 in 10.0 mi Calm Calm - N/A   Overcast
6:15 AM 48.2 °F - 21.2 °F 34% 29.71 in 10.0 mi WSW 11.5 mph 17.3 mph N/A   Overcast
6:35 AM 46.4 °F 39.5 °F 24.8 °F 43% 29.69 in 10.0 mi WSW 17.3 mph 25.3 mph N/A   Scattered Clouds
6:55 AM 48.2 °F - 24.8 °F 40% 29.71 in 10.0 mi West 8.1 mph 27.6 mph N/A   Partly Cloudy
7:15 AM 48.2 °F - 24.8 °F 40% 29.70 in 10.0 mi SW 11.5 mph 23.0 mph N/A   Mostly Cloudy
7:35 AM 46.4 °F 39.8 °F 24.8 °F 43% 29.69 in 10.0 mi SW 16.1 mph 21.9 mph N/A   Overcast
8:15 AM 48.2 °F - 24.8 °F 40% 29.70 in 10.0 mi WSW 19.6 mph 28.8 mph N/A   Mostly Cloudy
8:35 AM 50.0 °F - 24.8 °F 37% 29.70 in 10.0 mi WSW 19.6 mph 27.6 mph N/A   Overcast
8:55 AM 50.0 °F - 24.8 °F 37% 29.70 in 10.0 mi West 20.7 mph 33.4 mph N/A   Mostly Cloudy
9:35 AM 50.0 °F - 24.8 °F 37% 29.70 in 10.0 mi West 17.3 mph 27.6 mph N/A   Scattered Clouds
10:15 AM 51.8 °F - 24.8 °F 35% 29.69 in 10.0 mi WSW 16.1 mph 25.3 mph N/A   Partly Cloudy
10:35 AM 53.6 °F - 26.6 °F 35% 29.69 in 10.0 mi West 13.8 mph 24.2 mph N/A   Partly Cloudy
10:55 AM 53.6 °F - 26.6 °F 35% 29.69 in 10.0 mi WSW 15.0 mph 27.6 mph N/A   Partly Cloudy
11:15 AM 51.8 °F - 26.6 °F 38% 29.68 in 10.0 mi West 13.8 mph 21.9 mph N/A   Clear
11:35 AM 51.8 °F - 26.6 °F 38% 29.68 in 10.0 mi West 18.4 mph 28.8 mph N/A   Mostly Cloudy
11:55 AM 53.6 °F - 26.6 °F 35% 29.67 in 10.0 mi WSW 17.3 mph 32.2 mph N/A   Mostly Cloudy
12:15 PM 55.4 °F - 26.6 °F 33% 29.66 in 10.0 mi WSW 15.0 mph 25.3 mph N/A   Mostly Cloudy
12:35 PM 53.6 °F - 26.6 °F 35% 29.65 in 10.0 mi West 15.0 mph 28.8 mph N/A   Partly Cloudy
12:56 PM 53.6 °F - 26.6 °F 35% 29.66 in 10.0 mi WSW 17.3 mph 26.5 mph N/A   Clear
1:15 PM 53.6 °F - 24.8 °F 33% 29.66 in 10.0 mi West 16.1 mph 28.8 mph N/A   Clear
1:35 PM 53.6 °F - 24.8 °F 33% 29.66 in 10.0 mi WSW 20.7 mph 27.6 mph N/A   Clear
1:55 PM 55.4 °F - 24.8 °F 31% 29.66 in 10.0 mi WSW 12.7 mph 32.2 mph N/A   Clear
2:15 PM 53.6 °F - 24.8 °F 33% 29.65 in 10.0 mi West 18.4 mph 32.2 mph N/A   Partly Cloudy
2:35 PM 53.6 °F - 24.8 °F 33% 29.65 in 10.0 mi West 19.6 mph 28.8 mph N/A   Partly Cloudy
2:55 PM 53.6 °F - 26.6 °F 35% 29.65 in 10.0 mi West 18.4 mph 29.9 mph N/A   Partly Cloudy
3:15 PM 53.6 °F - 26.6 °F 35% 29.66 in 10.0 mi West 23.0 mph 34.5 mph N/A   Clear
3:35 PM 51.8 °F - 26.6 °F 38% 29.67 in 10.0 mi West 18.4 mph 31.1 mph N/A   Partly Cloudy
3:55 PM 50.0 °F - 26.6 °F 40% 29.66 in 10.0 mi West 21.9 mph 31.1 mph N/A   Partly Cloudy
4:15 PM 50.0 °F - 26.6 °F 40% 29.67 in 10.0 mi West 16.1 mph 25.3 mph N/A   Clear
4:55 PM 48.2 °F - 26.6 °F 43% 29.68 in 10.0 mi WSW 10.4 mph 26.5 mph N/A   Clear
5:15 PM 48.2 °F - 26.6 °F 43% 29.68 in 10.0 mi West 13.8 mph 26.5 mph N/A   Clear
5:35 PM 48.2 °F - 24.8 °F 40% 29.70 in 10.0 mi WSW 11.5 mph 21.9 mph N/A   Clear
5:55 PM 48.2 °F - 24.8 °F 40% 29.69 in 10.0 mi WSW 15.0 mph 21.9 mph N/A   Clear
6:15 PM 46.4 °F 41.9 °F 24.8 °F 43% 29.69 in 10.0 mi SW 9.2 mph - N/A   Clear
6:35 PM 48.2 °F - 24.8 °F 40% 29.69 in 10.0 mi NNE 3.5 mph - N/A   Clear
6:55 PM 46.4 °F 39.5 °F 24.8 °F 43% 29.69 in 10.0 mi West 17.3 mph 27.6 mph N/A   Clear
7:15 PM 46.4 °F 40.7 °F 26.6 °F 46% 29.69 in 10.0 mi West 12.7 mph 21.9 mph N/A   Clear
7:35 PM 46.4 °F 45.2 °F 26.6 °F 46% 29.69 in 10.0 mi South 3.5 mph - N/A   Clear
8:15 PM 46.4 °F 43.5 °F 24.8 °F 43% 29.71 in 10.0 mi West 5.8 mph 16.1 mph N/A   Clear
8:35 PM 46.4 °F 41.5 °F 24.8 °F 43% 29.71 in 10.0 mi West 10.4 mph - N/A   Partly Cloudy
8:55 PM 46.4 °F 40.7 °F 26.6 °F 46% 29.71 in 10.0 mi WSW 12.7 mph 17.3 mph N/A   Clear
9:15 PM 46.4 °F 40.7 °F 26.6 °F 46% 29.72 in 10.0 mi WSW 12.7 mph 21.9 mph N/A   Clear
9:35 PM 46.4 °F 41.9 °F 24.8 °F 43% 29.71 in 10.0 mi WSW 9.2 mph - N/A   Clear
9:55 PM 46.4 °F - 26.6 °F 46% 29.72 in 10.0 mi Calm Calm - N/A   Clear
10:15 PM 46.4 °F 41.1 °F 26.6 °F 46% 29.72 in 10.0 mi West 11.5 mph 17.3 mph N/A   Clear
10:35 PM 46.4 °F 40.7 °F 26.6 °F 46% 29.73 in 10.0 mi WNW 12.7 mph 20.7 mph N/A   Clear
10:55 PM 46.4 °F 42.4 °F 26.6 °F 46% 29.73 in 10.0 mi WSW 8.1 mph - N/A   Clear
11:15 PM 46.4 °F 43.5 °F 26.6 °F 46% 29.73 in 10.0 mi WSW 5.8 mph - N/A   Clear
11:35 PM 46.4 °F 42.9 °F 26.6 °F 46% 29.73 in 10.0 mi WSW 6.9 mph - N/A   Scattered Clouds
11:55 PM 46.4 °F 43.5 °F 26.6 °F 46% 29.72 in 10.0 mi WSW 5.8 mph - N/A   Partly Cloudy